sensor_id;sensor_type;location;lat;lon;timestamp;P1;durP1;ratioP1;P2;durP2;ratioP2
19897;SDS011;10111;50.814;4.572;2023-06-10T00:00:12;10.43;;;8.30;;
19897;SDS011;10111;50.814;4.572;2023-06-10T00:02:40;16.50;;;10.23;;
19897;SDS011;10111;50.814;4.572;2023-06-10T00:05:06;29.73;;;8.07;;
19897;SDS011;10111;50.814;4.572;2023-06-10T00:07:35;11.40;;;8.17;;
19897;SDS011;10111;50.814;4.572;2023-06-10T00:10:04;11.60;;;8.73;;
19897;SDS011;10111;50.814;4.572;2023-06-10T00:12:31;10.03;;;8.83;;
19897;SDS011;10111;50.814;4.572;2023-06-10T00:15:02;16.00;;;8.97;;
19897;SDS011;10111;50.814;4.572;2023-06-10T00:17:31;11.17;;;9.13;;
19897;SDS011;10111;50.814;4.572;2023-06-10T00:19:57;9.23;;;8.30;;
19897;SDS011;10111;50.814;4.572;2023-06-10T00:22:23;9.37;;;8.47;;
19897;SDS011;10111;50.814;4.572;2023-06-10T00:24:54;9.77;;;8.63;;
19897;SDS011;10111;50.814;4.572;2023-06-10T00:27:21;12.23;;;9.30;;
19897;SDS011;10111;50.814;4.572;2023-06-10T00:29:47;9.63;;;8.60;;
19897;SDS011;10111;50.814;4.572;2023-06-10T00:32:12;10.47;;;8.60;;
19897;SDS011;10111;50.814;4.572;2023-06-10T00:34:38;9.90;;;8.90;;
19897;SDS011;10111;50.814;4.572;2023-06-10T00:37:04;10.67;;;9.57;;
19897;SDS011;10111;50.814;4.572;2023-06-10T00:39:30;9.77;;;8.77;;
19897;SDS011;10111;50.814;4.572;2023-06-10T00:41:55;9.47;;;8.57;;
19897;SDS011;10111;50.814;4.572;2023-06-10T00:44:21;10.83;;;9.40;;
19897;SDS011;10111;50.814;4.572;2023-06-10T00:46:46;11.17;;;10.07;;
19897;SDS011;10111;50.814;4.572;2023-06-10T00:49:13;10.80;;;9.13;;
19897;SDS011;10111;50.814;4.572;2023-06-10T00:51:39;10.47;;;9.47;;
19897;SDS011;10111;50.814;4.572;2023-06-10T00:54:04;9.30;;;8.40;;
19897;SDS011;10111;50.814;4.572;2023-06-10T00:56:31;13.57;;;9.93;;
19897;SDS011;10111;50.814;4.572;2023-06-10T00:59:00;11.10;;;10.00;;
19897;SDS011;10111;50.814;4.572;2023-06-10T01:01:25;9.93;;;8.57;;
19897;SDS011;10111;50.814;4.572;2023-06-10T01:03:51;10.30;;;9.30;;
19897;SDS011;10111;50.814;4.572;2023-06-10T01:09:00;10.70;;;9.60;;
19897;SDS011;10111;50.814;4.572;2023-06-10T01:11:37;11.03;;;10.00;;
19897;SDS011;10111;50.814;4.572;2023-06-10T01:14:11;9.97;;;9.00;;
19897;SDS011;10111;50.814;4.572;2023-06-10T01:16:39;10.57;;;9.57;;
19897;SDS011;10111;50.814;4.572;2023-06-10T01:19:06;14.50;;;9.83;;
19897;SDS011;10111;50.814;4.572;2023-06-10T01:21:32;11.60;;;9.27;;
19897;SDS011;10111;50.814;4.572;2023-06-10T01:23:58;11.33;;;8.90;;
19897;SDS011;10111;50.814;4.572;2023-06-10T01:26:28;11.57;;;10.43;;
19897;SDS011;10111;50.814;4.572;2023-06-10T01:28:58;11.07;;;9.97;;
19897;SDS011;10111;50.814;4.572;2023-06-10T01:34:13;11.00;;;9.87;;
19897;SDS011;10111;50.814;4.572;2023-06-10T01:36:43;11.57;;;10.43;;
19897;SDS011;10111;50.814;4.572;2023-06-10T01:39:12;11.27;;;9.40;;
19897;SDS011;10111;50.814;4.572;2023-06-10T01:41:43;10.17;;;9.03;;
19897;SDS011;10111;50.814;4.572;2023-06-10T01:44:10;11.33;;;10.07;;
19897;SDS011;10111;50.814;4.572;2023-06-10T01:46:36;12.00;;;9.13;;
19897;SDS011;10111;50.814;4.572;2023-06-10T01:49:01;10.87;;;9.77;;
19897;SDS011;10111;50.814;4.572;2023-06-10T01:51:27;11.40;;;10.20;;
19897;SDS011;10111;50.814;4.572;2023-06-10T01:53:53;11.40;;;10.40;;
19897;SDS011;10111;50.814;4.572;2023-06-10T01:56:18;11.23;;;10.13;;
19897;SDS011;10111;50.814;4.572;2023-06-10T01:58:45;11.10;;;9.93;;
19897;SDS011;10111;50.814;4.572;2023-06-10T02:01:11;10.40;;;9.43;;
19897;SDS011;10111;50.814;4.572;2023-06-10T02:03:37;11.03;;;10.03;;
19897;SDS011;10111;50.814;4.572;2023-06-10T02:06:02;11.80;;;10.10;;
19897;SDS011;10111;50.814;4.572;2023-06-10T02:08:28;10.97;;;9.87;;
19897;SDS011;10111;50.814;4.572;2023-06-10T02:10:54;9.77;;;8.80;;
19897;SDS011;10111;50.814;4.572;2023-06-10T02:13:20;11.50;;;9.90;;
19897;SDS011;10111;50.814;4.572;2023-06-10T02:15:45;11.10;;;9.90;;
19897;SDS011;10111;50.814;4.572;2023-06-10T02:18:11;12.30;;;10.80;;
19897;SDS011;10111;50.814;4.572;2023-06-10T02:20:37;11.37;;;10.07;;
19897;SDS011;10111;50.814;4.572;2023-06-10T02:23:03;11.77;;;10.67;;
19897;SDS011;10111;50.814;4.572;2023-06-10T02:25:29;14.87;;;10.17;;
19897;SDS011;10111;50.814;4.572;2023-06-10T02:27:54;12.13;;;10.10;;
19897;SDS011;10111;50.814;4.572;2023-06-10T02:30:21;11.70;;;10.27;;
19897;SDS011;10111;50.814;4.572;2023-06-10T02:32:46;10.60;;;9.50;;
19897;SDS011;10111;50.814;4.572;2023-06-10T02:35:12;11.67;;;10.53;;
19897;SDS011;10111;50.814;4.572;2023-06-10T02:37:42;12.07;;;10.30;;
19897;SDS011;10111;50.814;4.572;2023-06-10T02:40:09;13.60;;;10.83;;
19897;SDS011;10111;50.814;4.572;2023-06-10T02:42:35;11.23;;;10.07;;
19897;SDS011;10111;50.814;4.572;2023-06-10T02:45:01;10.93;;;9.83;;
19897;SDS011;10111;50.814;4.572;2023-06-10T02:47:27;12.97;;;10.47;;
19897;SDS011;10111;50.814;4.572;2023-06-10T02:49:53;12.47;;;10.23;;
19897;SDS011;10111;50.814;4.572;2023-06-10T02:52:18;10.13;;;9.13;;
19897;SDS011;10111;50.814;4.572;2023-06-10T02:54:45;14.80;;;10.33;;
19897;SDS011;10111;50.814;4.572;2023-06-10T02:57:11;11.70;;;9.80;;
19897;SDS011;10111;50.814;4.572;2023-06-10T02:59:37;11.40;;;9.97;;
19897;SDS011;10111;50.814;4.572;2023-06-10T03:02:02;12.27;;;10.70;;
19897;SDS011;10111;50.814;4.572;2023-06-10T03:04:28;20.53;;;14.23;;
19897;SDS011;10111;50.814;4.572;2023-06-10T03:06:55;12.70;;;10.60;;
19897;SDS011;10111;50.814;4.572;2023-06-10T03:09:21;11.33;;;10.23;;
19897;SDS011;10111;50.814;4.572;2023-06-10T03:11:46;10.97;;;9.07;;
19897;SDS011;10111;50.814;4.572;2023-06-10T03:14:12;10.70;;;9.70;;
19897;SDS011;10111;50.814;4.572;2023-06-10T03:16:38;10.53;;;9.57;;
19897;SDS011;10111;50.814;4.572;2023-06-10T03:19:07;12.27;;;10.63;;
19897;SDS011;10111;50.814;4.572;2023-06-10T03:21:34;12.90;;;11.63;;
19897;SDS011;10111;50.814;4.572;2023-06-10T03:24:00;12.27;;;10.73;;
19897;SDS011;10111;50.814;4.572;2023-06-10T03:26:26;11.60;;;10.30;;
19897;SDS011;10111;50.814;4.572;2023-06-10T03:28:52;11.57;;;10.43;;
19897;SDS011;10111;50.814;4.572;2023-06-10T03:31:18;11.47;;;10.27;;
19897;SDS011;10111;50.814;4.572;2023-06-10T03:33:44;11.27;;;9.37;;
19897;SDS011;10111;50.814;4.572;2023-06-10T03:36:09;14.13;;;9.87;;
19897;SDS011;10111;50.814;4.572;2023-06-10T03:38:35;16.03;;;10.17;;
19897;SDS011;10111;50.814;4.572;2023-06-10T03:41:01;27.63;;;10.90;;
19897;SDS011;10111;50.814;4.572;2023-06-10T03:43:27;25.20;;;11.13;;
19897;SDS011;10111;50.814;4.572;2023-06-10T03:45:53;16.03;;;10.43;;
19897;SDS011;10111;50.814;4.572;2023-06-10T03:48:19;18.27;;;11.87;;
19897;SDS011;10111;50.814;4.572;2023-06-10T03:50:44;12.00;;;10.10;;
19897;SDS011;10111;50.814;4.572;2023-06-10T03:53:12;11.63;;;10.50;;
19897;SDS011;10111;50.814;4.572;2023-06-10T03:55:38;27.13;;;11.83;;
19897;SDS011;10111;50.814;4.572;2023-06-10T03:58:04;16.70;;;11.00;;
19897;SDS011;10111;50.814;4.572;2023-06-10T04:00:30;11.87;;;10.63;;
19897;SDS011;10111;50.814;4.572;2023-06-10T04:02:55;13.10;;;11.70;;
19897;SDS011;10111;50.814;4.572;2023-06-10T04:05:23;12.40;;;11.10;;
19897;SDS011;10111;50.814;4.572;2023-06-10T04:07:49;11.60;;;10.43;;
19897;SDS011;10111;50.814;4.572;2023-06-10T04:10:14;11.33;;;10.20;;
19897;SDS011;10111;50.814;4.572;2023-06-10T04:12:41;14.00;;;10.80;;
19897;SDS011;10111;50.814;4.572;2023-06-10T04:15:07;12.37;;;11.07;;
19897;SDS011;10111;50.814;4.572;2023-06-10T04:17:33;10.77;;;9.77;;
19897;SDS011;10111;50.814;4.572;2023-06-10T04:19:59;15.27;;;11.47;;
19897;SDS011;10111;50.814;4.572;2023-06-10T04:22:25;13.97;;;10.67;;
19897;SDS011;10111;50.814;4.572;2023-06-10T04:24:52;12.50;;;10.23;;
19897;SDS011;10111;50.814;4.572;2023-06-10T04:27:18;12.50;;;10.83;;
19897;SDS011;10111;50.814;4.572;2023-06-10T04:29:43;13.33;;;11.00;;
19897;SDS011;10111;50.814;4.572;2023-06-10T04:32:09;13.43;;;11.80;;
19897;SDS011;10111;50.814;4.572;2023-06-10T04:34:35;12.03;;;10.80;;
19897;SDS011;10111;50.814;4.572;2023-06-10T04:37:04;13.27;;;11.97;;
19897;SDS011;10111;50.814;4.572;2023-06-10T04:39:30;13.17;;;10.03;;
19897;SDS011;10111;50.814;4.572;2023-06-10T04:41:55;13.63;;;11.00;;
19897;SDS011;10111;50.814;4.572;2023-06-10T04:44:21;16.30;;;12.10;;
19897;SDS011;10111;50.814;4.572;2023-06-10T04:46:47;12.67;;;11.23;;
19897;SDS011;10111;50.814;4.572;2023-06-10T04:49:13;12.90;;;11.50;;
19897;SDS011;10111;50.814;4.572;2023-06-10T04:51:39;12.63;;;11.33;;
19897;SDS011;10111;50.814;4.572;2023-06-10T04:54:05;15.83;;;12.50;;
19897;SDS011;10111;50.814;4.572;2023-06-10T04:56:31;15.23;;;10.37;;
19897;SDS011;10111;50.814;4.572;2023-06-10T04:58:57;14.40;;;12.30;;
19897;SDS011;10111;50.814;4.572;2023-06-10T05:01:23;11.93;;;10.83;;
19897;SDS011;10111;50.814;4.572;2023-06-10T05:03:48;12.13;;;10.90;;
19897;SDS011;10111;50.814;4.572;2023-06-10T05:06:14;15.33;;;12.27;;
19897;SDS011;10111;50.814;4.572;2023-06-10T05:08:40;14.83;;;12.73;;
19897;SDS011;10111;50.814;4.572;2023-06-10T05:11:06;13.83;;;12.50;;
19897;SDS011;10111;50.814;4.572;2023-06-10T05:26:28;15.23;;;12.37;;
19897;SDS011;10111;50.814;4.572;2023-06-10T05:28:56;12.50;;;11.30;;
19897;SDS011;10111;50.814;4.572;2023-06-10T05:31:22;14.37;;;13.00;;
19897;SDS011;10111;50.814;4.572;2023-06-10T05:33:47;12.90;;;11.60;;
19897;SDS011;10111;50.814;4.572;2023-06-10T05:36:13;12.73;;;11.53;;
19897;SDS011;10111;50.814;4.572;2023-06-10T05:38:39;12.57;;;11.37;;
19897;SDS011;10111;50.814;4.572;2023-06-10T05:41:04;14.80;;;11.70;;
19897;SDS011;10111;50.814;4.572;2023-06-10T05:43:30;11.50;;;10.40;;
19897;SDS011;10111;50.814;4.572;2023-06-10T05:45:55;18.13;;;10.77;;
19897;SDS011;10111;50.814;4.572;2023-06-10T05:48:21;12.53;;;11.23;;
19897;SDS011;10111;50.814;4.572;2023-06-10T05:50:47;12.30;;;10.73;;
19897;SDS011;10111;50.814;4.572;2023-06-10T05:53:16;12.30;;;11.00;;
19897;SDS011;10111;50.814;4.572;2023-06-10T05:55:42;12.27;;;11.10;;
19897;SDS011;10111;50.814;4.572;2023-06-10T05:58:09;12.00;;;10.67;;
19897;SDS011;10111;50.814;4.572;2023-06-10T06:00:37;10.97;;;9.67;;
19897;SDS011;10111;50.814;4.572;2023-06-10T06:03:03;11.63;;;10.53;;
19897;SDS011;10111;50.814;4.572;2023-06-10T06:05:30;11.27;;;10.23;;
19897;SDS011;10111;50.814;4.572;2023-06-10T06:08:09;11.97;;;10.70;;
19897;SDS011;10111;50.814;4.572;2023-06-10T06:10:35;10.83;;;9.50;;
19897;SDS011;10111;50.814;4.572;2023-06-10T06:13:01;10.33;;;9.33;;
19897;SDS011;10111;50.814;4.572;2023-06-10T06:15:27;11.30;;;9.70;;
19897;SDS011;10111;50.814;4.572;2023-06-10T06:17:53;14.50;;;11.23;;
19897;SDS011;10111;50.814;4.572;2023-06-10T06:20:19;11.27;;;10.10;;
19897;SDS011;10111;50.814;4.572;2023-06-10T06:22:45;10.77;;;9.77;;
19897;SDS011;10111;50.814;4.572;2023-06-10T06:25:11;10.30;;;9.00;;
19897;SDS011;10111;50.814;4.572;2023-06-10T06:27:37;11.63;;;9.53;;
19897;SDS011;10111;50.814;4.572;2023-06-10T06:30:03;11.13;;;9.57;;
19897;SDS011;10111;50.814;4.572;2023-06-10T06:32:29;10.83;;;9.30;;
19897;SDS011;10111;50.814;4.572;2023-06-10T06:34:55;9.93;;;9.03;;
19897;SDS011;10111;50.814;4.572;2023-06-10T06:37:21;10.20;;;8.60;;
19897;SDS011;10111;50.814;4.572;2023-06-10T06:39:47;11.60;;;9.10;;
19897;SDS011;10111;50.814;4.572;2023-06-10T06:42:13;12.30;;;9.57;;
19897;SDS011;10111;50.814;4.572;2023-06-10T06:44:39;10.30;;;9.30;;
19897;SDS011;10111;50.814;4.572;2023-06-10T06:47:05;10.03;;;9.10;;
19897;SDS011;10111;50.814;4.572;2023-06-10T06:49:30;10.63;;;9.57;;
19897;SDS011;10111;50.814;4.572;2023-06-10T06:51:56;10.13;;;9.23;;
19897;SDS011;10111;50.814;4.572;2023-06-10T06:54:22;11.17;;;10.07;;
19897;SDS011;10111;50.814;4.572;2023-06-10T06:56:47;10.07;;;9.07;;
19897;SDS011;10111;50.814;4.572;2023-06-10T06:59:13;10.80;;;9.67;;
19897;SDS011;10111;50.814;4.572;2023-06-10T07:01:39;10.23;;;8.93;;
19897;SDS011;10111;50.814;4.572;2023-06-10T07:04:04;9.80;;;8.90;;
19897;SDS011;10111;50.814;4.572;2023-06-10T07:06:30;9.63;;;8.70;;
19897;SDS011;10111;50.814;4.572;2023-06-10T07:08:56;8.90;;;8.10;;
19897;SDS011;10111;50.814;4.572;2023-06-10T07:11:22;11.53;;;8.57;;
19897;SDS011;10111;50.814;4.572;2023-06-10T07:13:48;9.10;;;8.20;;
19897;SDS011;10111;50.814;4.572;2023-06-10T07:16:13;12.00;;;8.30;;
19897;SDS011;10111;50.814;4.572;2023-06-10T07:18:39;12.43;;;8.73;;
19897;SDS011;10111;50.814;4.572;2023-06-10T07:21:05;10.50;;;7.70;;
19897;SDS011;10111;50.814;4.572;2023-06-10T07:23:30;9.67;;;8.83;;
19897;SDS011;10111;50.814;4.572;2023-06-10T07:25:56;9.30;;;8.40;;
19897;SDS011;10111;50.814;4.572;2023-06-10T07:28:22;8.37;;;7.57;;
19897;SDS011;10111;50.814;4.572;2023-06-10T07:30:47;9.27;;;8.33;;
19897;SDS011;10111;50.814;4.572;2023-06-10T07:33:13;9.00;;;8.00;;
19897;SDS011;10111;50.814;4.572;2023-06-10T07:35:38;9.80;;;8.93;;
19897;SDS011;10111;50.814;4.572;2023-06-10T07:38:04;9.80;;;8.50;;
19897;SDS011;10111;50.814;4.572;2023-06-10T07:40:30;10.57;;;8.03;;
19897;SDS011;10111;50.814;4.572;2023-06-10T07:42:55;9.03;;;7.93;;
19897;SDS011;10111;50.814;4.572;2023-06-10T07:45:21;11.80;;;7.70;;
19897;SDS011;10111;50.814;4.572;2023-06-10T07:47:47;8.93;;;8.10;;
19897;SDS011;10111;50.814;4.572;2023-06-10T07:50:12;8.47;;;7.67;;
19897;SDS011;10111;50.814;4.572;2023-06-10T07:52:38;10.00;;;7.83;;
19897;SDS011;10111;50.814;4.572;2023-06-10T07:55:04;8.63;;;7.83;;
19897;SDS011;10111;50.814;4.572;2023-06-10T07:57:30;7.90;;;7.20;;
19897;SDS011;10111;50.814;4.572;2023-06-10T07:59:59;8.03;;;7.17;;
19897;SDS011;10111;50.814;4.572;2023-06-10T08:02:26;7.63;;;6.93;;
19897;SDS011;10111;50.814;4.572;2023-06-10T08:04:52;8.57;;;7.77;;
19897;SDS011;10111;50.814;4.572;2023-06-10T08:07:18;7.67;;;6.97;;
19897;SDS011;10111;50.814;4.572;2023-06-10T08:09:44;8.20;;;7.40;;
19897;SDS011;10111;50.814;4.572;2023-06-10T08:12:09;8.60;;;7.80;;
19897;SDS011;10111;50.814;4.572;2023-06-10T08:14:35;8.93;;;7.27;;
19897;SDS011;10111;50.814;4.572;2023-06-10T08:17:02;10.68;;;7.97;;
19897;SDS011;10111;50.814;4.572;2023-06-10T08:19:30;8.70;;;7.30;;
19897;SDS011;10111;50.814;4.572;2023-06-10T08:21:56;10.18;;;7.07;;
19897;SDS011;10111;50.814;4.572;2023-06-10T08:24:21;8.02;;;7.32;;
19897;SDS011;10111;50.814;4.572;2023-06-10T08:26:47;12.77;;;6.80;;
19897;SDS011;10111;50.814;4.572;2023-06-10T08:29:13;7.45;;;6.85;;
19897;SDS011;10111;50.814;4.572;2023-06-10T08:31:42;8.15;;;6.80;;
19897;SDS011;10111;50.814;4.572;2023-06-10T08:34:08;8.27;;;6.93;;
19897;SDS011;10111;50.814;4.572;2023-06-10T08:36:34;8.13;;;6.80;;
19897;SDS011;10111;50.814;4.572;2023-06-10T08:39:01;9.63;;;7.93;;
19897;SDS011;10111;50.814;4.572;2023-06-10T08:41:28;7.00;;;6.03;;
19897;SDS011;10111;50.814;4.572;2023-06-10T08:44:17;7.72;;;6.43;;
19897;SDS011;10111;50.814;4.572;2023-06-10T08:46:51;7.70;;;6.78;;
19897;SDS011;10111;50.814;4.572;2023-06-10T08:49:19;8.27;;;7.47;;
19897;SDS011;10111;50.814;4.572;2023-06-10T08:51:51;7.68;;;6.88;;
19897;SDS011;10111;50.814;4.572;2023-06-10T08:54:23;7.40;;;6.60;;
19897;SDS011;10111;50.814;4.572;2023-06-10T08:56:52;7.75;;;6.72;;
19897;SDS011;10111;50.814;4.572;2023-06-10T08:59:21;9.05;;;6.53;;
19897;SDS011;10111;50.814;4.572;2023-06-10T09:01:46;7.55;;;6.85;;
19897;SDS011;10111;50.814;4.572;2023-06-10T09:04:13;6.70;;;6.10;;
19897;SDS011;10111;50.814;4.572;2023-06-10T09:06:39;6.60;;;6.00;;
19897;SDS011;10111;50.814;4.572;2023-06-10T09:09:06;7.50;;;6.70;;
19897;SDS011;10111;50.814;4.572;2023-06-10T09:11:32;7.13;;;6.53;;
19897;SDS011;10111;50.814;4.572;2023-06-10T09:13:58;7.82;;;6.60;;
19897;SDS011;10111;50.814;4.572;2023-06-10T09:16:24;6.28;;;5.63;;
19897;SDS011;10111;50.814;4.572;2023-06-10T09:18:51;6.72;;;5.82;;
19897;SDS011;10111;50.814;4.572;2023-06-10T09:21:23;6.88;;;5.57;;
19897;SDS011;10111;50.814;4.572;2023-06-10T09:23:49;6.28;;;5.78;;
19897;SDS011;10111;50.814;4.572;2023-06-10T09:26:15;6.32;;;5.72;;
19897;SDS011;10111;50.814;4.572;2023-06-10T09:28:44;6.35;;;5.70;;
19897;SDS011;10111;50.814;4.572;2023-06-10T09:31:14;6.43;;;5.25;;
19897;SDS011;10111;50.814;4.572;2023-06-10T09:33:44;6.72;;;6.13;;
19897;SDS011;10111;50.814;4.572;2023-06-10T09:36:10;7.40;;;6.32;;
19897;SDS011;10111;50.814;4.572;2023-06-10T09:38:36;6.78;;;6.10;;
19897;SDS011;10111;50.814;4.572;2023-06-10T09:41:03;6.75;;;6.10;;
19897;SDS011;10111;50.814;4.572;2023-06-10T09:43:44;6.05;;;5.45;;
19897;SDS011;10111;50.814;4.572;2023-06-10T09:46:17;6.47;;;5.88;;
19897;SDS011;10111;50.814;4.572;2023-06-10T09:48:45;8.02;;;6.05;;
19897;SDS011;10111;50.814;4.572;2023-06-10T09:51:12;6.63;;;6.03;;
19897;SDS011;10111;50.814;4.572;2023-06-10T09:53:39;6.72;;;6.03;;
19897;SDS011;10111;50.814;4.572;2023-06-10T09:56:05;6.38;;;5.57;;
19897;SDS011;10111;50.814;4.572;2023-06-10T09:58:35;6.30;;;5.65;;
19897;SDS011;10111;50.814;4.572;2023-06-10T10:01:08;6.97;;;6.32;;
19897;SDS011;10111;50.814;4.572;2023-06-10T10:03:44;6.70;;;6.10;;
19897;SDS011;10111;50.814;4.572;2023-06-10T10:06:17;6.78;;;6.07;;
19897;SDS011;10111;50.814;4.572;2023-06-10T10:08:47;6.82;;;6.15;;
19897;SDS011;10111;50.814;4.572;2023-06-10T10:11:15;10.80;;;6.70;;
19897;SDS011;10111;50.814;4.572;2023-06-10T10:13:42;7.25;;;6.53;;
19897;SDS011;10111;50.814;4.572;2023-06-10T10:16:22;7.82;;;7.00;;
19897;SDS011;10111;50.814;4.572;2023-06-10T10:18:59;6.75;;;6.10;;
19897;SDS011;10111;50.814;4.572;2023-06-10T10:21:32;7.45;;;6.63;;
19897;SDS011;10111;50.814;4.572;2023-06-10T10:24:05;6.45;;;5.80;;
19897;SDS011;10111;50.814;4.572;2023-06-10T10:26:37;7.55;;;6.72;;
19897;SDS011;10111;50.814;4.572;2023-06-10T10:29:10;8.60;;;6.00;;
19897;SDS011;10111;50.814;4.572;2023-06-10T10:31:50;7.90;;;5.97;;
19897;SDS011;10111;50.814;4.572;2023-06-10T10:34:21;7.15;;;6.03;;
19897;SDS011;10111;50.814;4.572;2023-06-10T10:37:00;6.20;;;5.70;;
19897;SDS011;10111;50.814;4.572;2023-06-10T10:39:26;6.78;;;6.18;;
19897;SDS011;10111;50.814;4.572;2023-06-10T10:41:53;7.07;;;6.55;;
19897;SDS011;10111;50.814;4.572;2023-06-10T10:44:20;8.45;;;6.25;;
19897;SDS011;10111;50.814;4.572;2023-06-10T10:46:50;7.53;;;6.82;;
19897;SDS011;10111;50.814;4.572;2023-06-10T10:49:17;7.28;;;6.55;;
19897;SDS011;10111;50.814;4.572;2023-06-10T10:52:00;9.68;;;7.38;;
19897;SDS011;10111;50.814;4.572;2023-06-10T10:54:30;6.60;;;6.03;;
19897;SDS011;10111;50.814;4.572;2023-06-10T10:59:55;7.32;;;6.72;;
19897;SDS011;10111;50.814;4.572;2023-06-10T11:02:41;6.82;;;6.22;;
19897;SDS011;10111;50.814;4.572;2023-06-10T11:05:14;7.00;;;6.32;;
19897;SDS011;10111;50.814;4.572;2023-06-10T11:07:41;7.20;;;6.50;;
19897;SDS011;10111;50.814;4.572;2023-06-10T11:10:30;6.43;;;5.85;;
19897;SDS011;10111;50.814;4.572;2023-06-10T11:12:57;6.55;;;5.95;;
19897;SDS011;10111;50.814;4.572;2023-06-10T11:15:24;8.75;;;6.53;;
19897;SDS011;10111;50.814;4.572;2023-06-10T11:18:53;6.65;;;6.03;;
19897;SDS011;10111;50.814;4.572;2023-06-10T11:26:19;7.30;;;6.18;;
19897;SDS011;10111;50.814;4.572;2023-06-10T11:31:19;7.63;;;6.40;;
19897;SDS011;10111;50.814;4.572;2023-06-10T11:33:55;6.93;;;6.28;;
19897;SDS011;10111;50.814;4.572;2023-06-10T11:36:22;6.57;;;6.05;;
19897;SDS011;10111;50.814;4.572;2023-06-10T11:38:51;6.72;;;6.13;;
19897;SDS011;10111;50.814;4.572;2023-06-10T11:41:23;6.22;;;5.47;;
19897;SDS011;10111;50.814;4.572;2023-06-10T11:43:53;6.40;;;5.88;;
19897;SDS011;10111;50.814;4.572;2023-06-10T11:46:21;6.65;;;6.15;;
19897;SDS011;10111;50.814;4.572;2023-06-10T11:51:17;6.05;;;5.50;;
19897;SDS011;10111;50.814;4.572;2023-06-10T11:53:44;7.22;;;6.45;;
19897;SDS011;10111;50.814;4.572;2023-06-10T11:56:10;6.78;;;5.90;;
19897;SDS011;10111;50.814;4.572;2023-06-10T11:58:36;6.78;;;5.47;;
19897;SDS011;10111;50.814;4.572;2023-06-10T12:01:01;7.70;;;7.00;;
19897;SDS011;10111;50.814;4.572;2023-06-10T12:03:28;9.75;;;5.75;;
19897;SDS011;10111;50.814;4.572;2023-06-10T12:06:04;9.57;;;6.50;;
19897;SDS011;10111;50.814;4.572;2023-06-10T12:08:31;6.10;;;5.45;;
19897;SDS011;10111;50.814;4.572;2023-06-10T12:10:57;6.63;;;6.03;;
19897;SDS011;10111;50.814;4.572;2023-06-10T12:13:26;7.03;;;5.88;;
19897;SDS011;10111;50.814;4.572;2023-06-10T12:15:52;6.25;;;5.53;;
19897;SDS011;10111;50.814;4.572;2023-06-10T12:18:22;6.65;;;6.10;;
19897;SDS011;10111;50.814;4.572;2023-06-10T12:20:48;7.18;;;6.45;;
19897;SDS011;10111;50.814;4.572;2023-06-10T12:23:16;6.18;;;5.63;;
19897;SDS011;10111;50.814;4.572;2023-06-10T12:25:52;8.55;;;5.47;;
19897;SDS011;10111;50.814;4.572;2023-06-10T12:28:23;7.50;;;6.80;;
19897;SDS011;10111;50.814;4.572;2023-06-10T12:30:49;7.75;;;6.97;;
19897;SDS011;10111;50.814;4.572;2023-06-10T12:33:16;7.70;;;6.07;;
19897;SDS011;10111;50.814;4.572;2023-06-10T12:35:49;7.00;;;6.40;;
19897;SDS011;10111;50.814;4.572;2023-06-10T12:38:21;7.85;;;7.15;;
19897;SDS011;10111;50.814;4.572;2023-06-10T12:40:49;7.78;;;6.88;;
19897;SDS011;10111;50.814;4.572;2023-06-10T12:43:24;6.55;;;5.97;;
19897;SDS011;10111;50.814;4.572;2023-06-10T12:45:51;7.00;;;6.43;;
19897;SDS011;10111;50.814;4.572;2023-06-10T12:50:42;7.15;;;6.57;;
19897;SDS011;10111;50.814;4.572;2023-06-10T12:53:09;7.70;;;7.00;;
19897;SDS011;10111;50.814;4.572;2023-06-10T12:55:38;6.88;;;6.28;;
19897;SDS011;10111;50.814;4.572;2023-06-10T12:58:04;6.75;;;6.15;;
19897;SDS011;10111;50.814;4.572;2023-06-10T13:00:30;7.50;;;6.43;;
19897;SDS011;10111;50.814;4.572;2023-06-10T13:02:56;6.75;;;6.03;;
19897;SDS011;10111;50.814;4.572;2023-06-10T13:05:25;7.18;;;6.47;;
19897;SDS011;10111;50.814;4.572;2023-06-10T13:07:51;8.93;;;6.88;;
19897;SDS011;10111;50.814;4.572;2023-06-10T13:10:17;6.88;;;6.18;;
19897;SDS011;10111;50.814;4.572;2023-06-10T13:12:44;6.40;;;5.88;;
19897;SDS011;10111;50.814;4.572;2023-06-10T13:15:11;7.55;;;5.90;;
19897;SDS011;10111;50.814;4.572;2023-06-10T13:17:37;8.23;;;7.43;;
19897;SDS011;10111;50.814;4.572;2023-06-10T13:20:04;7.32;;;6.63;;
19897;SDS011;10111;50.814;4.572;2023-06-10T13:22:31;6.97;;;6.03;;
19897;SDS011;10111;50.814;4.572;2023-06-10T13:25:04;7.63;;;6.80;;
19897;SDS011;10111;50.814;4.572;2023-06-10T13:27:32;6.32;;;5.75;;
19897;SDS011;10111;50.814;4.572;2023-06-10T13:29:58;10.80;;;5.97;;
19897;SDS011;10111;50.814;4.572;2023-06-10T13:32:24;7.85;;;6.85;;
19897;SDS011;10111;50.814;4.572;2023-06-10T13:34:50;6.63;;;6.03;;
19897;SDS011;10111;50.814;4.572;2023-06-10T13:37:15;8.75;;;6.40;;
19897;SDS011;10111;50.814;4.572;2023-06-10T13:39:45;6.60;;;6.00;;
19897;SDS011;10111;50.814;4.572;2023-06-10T13:42:18;7.13;;;6.25;;
19897;SDS011;10111;50.814;4.572;2023-06-10T13:44:44;7.07;;;6.40;;
19897;SDS011;10111;50.814;4.572;2023-06-10T13:47:10;7.03;;;6.30;;
19897;SDS011;10111;50.814;4.572;2023-06-10T13:49:36;8.20;;;6.70;;
19897;SDS011;10111;50.814;4.572;2023-06-10T13:52:02;7.07;;;6.13;;
19897;SDS011;10111;50.814;4.572;2023-06-10T13:54:28;8.40;;;6.28;;
19897;SDS011;10111;50.814;4.572;2023-06-10T13:56:54;6.78;;;6.18;;
19897;SDS011;10111;50.814;4.572;2023-06-10T13:59:20;7.25;;;6.65;;
19897;SDS011;10111;50.814;4.572;2023-06-10T14:01:46;7.13;;;6.25;;
19897;SDS011;10111;50.814;4.572;2023-06-10T14:04:12;7.05;;;6.40;;
19897;SDS011;10111;50.814;4.572;2023-06-10T14:06:38;7.00;;;6.47;;
19897;SDS011;10111;50.814;4.572;2023-06-10T14:09:04;8.10;;;6.95;;
19897;SDS011;10111;50.814;4.572;2023-06-10T14:11:30;6.63;;;6.03;;
19897;SDS011;10111;50.814;4.572;2023-06-10T14:13:56;6.50;;;5.90;;
19897;SDS011;10111;50.814;4.572;2023-06-10T14:16:22;7.20;;;6.30;;
19897;SDS011;10111;50.814;4.572;2023-06-10T14:18:48;8.27;;;6.25;;
19897;SDS011;10111;50.814;4.572;2023-06-10T14:21:15;6.43;;;5.93;;
19897;SDS011;10111;50.814;4.572;2023-06-10T14:23:41;6.22;;;5.68;;
19897;SDS011;10111;50.814;4.572;2023-06-10T14:26:08;6.70;;;6.10;;
19897;SDS011;10111;50.814;4.572;2023-06-10T14:28:34;9.55;;;7.10;;
19897;SDS011;10111;50.814;4.572;2023-06-10T14:31:00;7.47;;;6.78;;
19897;SDS011;10111;50.814;4.572;2023-06-10T14:33:26;7.60;;;6.68;;
19897;SDS011;10111;50.814;4.572;2023-06-10T14:35:51;7.40;;;6.72;;
19897;SDS011;10111;50.814;4.572;2023-06-10T14:38:17;7.35;;;6.63;;
19897;SDS011;10111;50.814;4.572;2023-06-10T14:40:43;7.88;;;6.55;;
19897;SDS011;10111;50.814;4.572;2023-06-10T14:43:09;6.95;;;6.25;;
19897;SDS011;10111;50.814;4.572;2023-06-10T14:45:44;6.20;;;5.63;;
19897;SDS011;10111;50.814;4.572;2023-06-10T14:48:12;7.78;;;6.43;;
19897;SDS011;10111;50.814;4.572;2023-06-10T14:50:38;7.18;;;6.55;;
19897;SDS011;10111;50.814;4.572;2023-06-10T14:53:05;8.90;;;7.00;;
19897;SDS011;10111;50.814;4.572;2023-06-10T14:55:31;8.63;;;6.53;;
19897;SDS011;10111;50.814;4.572;2023-06-10T14:57:56;7.45;;;6.03;;
19897;SDS011;10111;50.814;4.572;2023-06-10T15:00:23;6.93;;;6.13;;
19897;SDS011;10111;50.814;4.572;2023-06-10T15:02:50;6.45;;;5.95;;
19897;SDS011;10111;50.814;4.572;2023-06-10T15:05:17;7.75;;;6.20;;
19897;SDS011;10111;50.814;4.572;2023-06-10T15:07:44;6.63;;;6.03;;
19897;SDS011;10111;50.814;4.572;2023-06-10T15:10:10;6.55;;;6.05;;
19897;SDS011;10111;50.814;4.572;2023-06-10T15:12:37;9.10;;;6.60;;